sensor_id;sensor_type;location;lat;lon;timestamp;P1;durP1;ratioP1;P2;durP2;ratioP2
2728;SDS011;1372;47.956;7.830;2023-12-20T00:00:40;0.50;;;0.47;;
2728;SDS011;1372;47.956;7.830;2023-12-20T00:03:12;1.03;;;0.63;;
2728;SDS011;1372;47.956;7.830;2023-12-20T00:05:41;0.90;;;0.70;;
2728;SDS011;1372;47.956;7.830;2023-12-20T00:08:16;1.60;;;0.60;;
2728;SDS011;1372;47.956;7.830;2023-12-20T00:10:45;1.70;;;0.70;;
2728;SDS011;1372;47.956;7.830;2023-12-20T00:13:18;3.03;;;0.80;;
2728;SDS011;1372;47.956;7.830;2023-12-20T00:15:47;0.70;;;0.70;;
2728;SDS011;1372;47.956;7.830;2023-12-20T00:18:26;0.97;;;0.57;;
2728;SDS011;1372;47.956;7.830;2023-12-20T00:20:55;0.73;;;0.67;;
2728;SDS011;1372;47.956;7.830;2023-12-20T00:23:24;0.80;;;0.80;;
2728;SDS011;1372;47.956;7.830;2023-12-20T00:25:53;0.60;;;0.60;;
2728;SDS011;1372;47.956;7.830;2023-12-20T00:28:21;1.23;;;0.60;;
2728;SDS011;1372;47.956;7.830;2023-12-20T00:30:53;0.50;;;0.50;;
2728;SDS011;1372;47.956;7.830;2023-12-20T00:33:23;0.70;;;0.70;;
2728;SDS011;1372;47.956;7.830;2023-12-20T00:35:57;0.60;;;0.60;;
2728;SDS011;1372;47.956;7.830;2023-12-20T00:38:29;1.17;;;0.50;;
2728;SDS011;1372;47.956;7.830;2023-12-20T00:41:00;0.50;;;0.47;;
2728;SDS011;1372;47.956;7.830;2023-12-20T00:43:32;0.50;;;0.50;;
2728;SDS011;1372;47.956;7.830;2023-12-20T00:46:00;1.17;;;1.03;;
2728;SDS011;1372;47.956;7.830;2023-12-20T00:48:31;0.80;;;0.80;;
2728;SDS011;1372;47.956;7.830;2023-12-20T00:50:59;0.70;;;0.70;;
2728;SDS011;1372;47.956;7.830;2023-12-20T00:53:31;0.80;;;0.70;;
2728;SDS011;1372;47.956;7.830;2023-12-20T00:56:08;0.60;;;0.60;;
2728;SDS011;1372;47.956;7.830;2023-12-20T00:58:39;0.70;;;0.70;;
2728;SDS011;1372;47.956;7.830;2023-12-20T01:01:16;0.60;;;0.50;;
2728;SDS011;1372;47.956;7.830;2023-12-20T01:03:48;0.50;;;0.50;;
2728;SDS011;1372;47.956;7.830;2023-12-20T01:06:20;0.73;;;0.73;;
2728;SDS011;1372;47.956;7.830;2023-12-20T01:08:49;0.83;;;0.80;;
2728;SDS011;1372;47.956;7.830;2023-12-20T01:11:20;1.00;;;0.70;;
2728;SDS011;1372;47.956;7.830;2023-12-20T01:13:49;0.50;;;0.50;;
2728;SDS011;1372;47.956;7.830;2023-12-20T01:16:18;0.70;;;0.70;;
2728;SDS011;1372;47.956;7.830;2023-12-20T01:18:51;0.60;;;0.57;;
2728;SDS011;1372;47.956;7.830;2023-12-20T01:21:23;1.07;;;0.50;;
2728;SDS011;1372;47.956;7.830;2023-12-20T01:23:55;0.67;;;0.60;;
2728;SDS011;1372;47.956;7.830;2023-12-20T01:26:28;1.20;;;0.63;;
2728;SDS011;1372;47.956;7.830;2023-12-20T01:29:03;1.00;;;1.00;;
2728;SDS011;1372;47.956;7.830;2023-12-20T01:31:33;0.60;;;0.60;;
2728;SDS011;1372;47.956;7.830;2023-12-20T01:34:08;2.20;;;0.60;;
2728;SDS011;1372;47.956;7.830;2023-12-20T01:36:36;0.67;;;0.50;;
2728;SDS011;1372;47.956;7.830;2023-12-20T01:39:05;0.50;;;0.50;;
2728;SDS011;1372;47.956;7.830;2023-12-20T01:41:39;0.70;;;0.70;;
2728;SDS011;1372;47.956;7.830;2023-12-20T01:44:16;0.50;;;0.30;;
2728;SDS011;1372;47.956;7.830;2023-12-20T01:46:45;1.20;;;0.60;;
2728;SDS011;1372;47.956;7.830;2023-12-20T01:49:18;1.43;;;0.57;;
2728;SDS011;1372;47.956;7.830;2023-12-20T01:51:47;0.63;;;0.60;;
2728;SDS011;1372;47.956;7.830;2023-12-20T01:54:17;0.50;;;0.50;;
2728;SDS011;1372;47.956;7.830;2023-12-20T01:56:48;0.53;;;0.40;;
2728;SDS011;1372;47.956;7.830;2023-12-20T01:59:23;0.60;;;0.53;;
2728;SDS011;1372;47.956;7.830;2023-12-20T02:01:52;0.30;;;0.30;;
2728;SDS011;1372;47.956;7.830;2023-12-20T02:04:23;0.50;;;0.50;;
2728;SDS011;1372;47.956;7.830;2023-12-20T02:06:56;0.57;;;0.50;;
2728;SDS011;1372;47.956;7.830;2023-12-20T02:09:29;0.30;;;0.30;;
2728;SDS011;1372;47.956;7.830;2023-12-20T02:12:01;0.50;;;0.30;;
2728;SDS011;1372;47.956;7.830;2023-12-20T02:14:39;0.37;;;0.37;;
2728;SDS011;1372;47.956;7.830;2023-12-20T02:17:08;0.63;;;0.60;;
2728;SDS011;1372;47.956;7.830;2023-12-20T02:19:47;0.40;;;0.40;;
2728;SDS011;1372;47.956;7.830;2023-12-20T02:22:21;0.50;;;0.50;;
2728;SDS011;1372;47.956;7.830;2023-12-20T02:24:55;0.50;;;0.40;;
2728;SDS011;1372;47.956;7.830;2023-12-20T02:27:24;0.50;;;0.50;;
2728;SDS011;1372;47.956;7.830;2023-12-20T02:29:53;0.40;;;0.40;;
2728;SDS011;1372;47.956;7.830;2023-12-20T02:32:24;1.37;;;0.40;;
2728;SDS011;1372;47.956;7.830;2023-12-20T02:34:58;0.70;;;0.70;;
2728;SDS011;1372;47.956;7.830;2023-12-20T02:37:28;0.70;;;0.70;;
2728;SDS011;1372;47.956;7.830;2023-12-20T02:39:57;0.50;;;0.50;;
2728;SDS011;1372;47.956;7.830;2023-12-20T02:42:31;0.60;;;0.60;;
2728;SDS011;1372;47.956;7.830;2023-12-20T02:44:59;0.70;;;0.70;;
2728;SDS011;1372;47.956;7.830;2023-12-20T02:47:28;0.70;;;0.70;;
2728;SDS011;1372;47.956;7.830;2023-12-20T02:49:57;0.50;;;0.50;;
2728;SDS011;1372;47.956;7.830;2023-12-20T02:52:31;0.60;;;0.60;;
2728;SDS011;1372;47.956;7.830;2023-12-20T02:55:00;0.67;;;0.67;;
2728;SDS011;1372;47.956;7.830;2023-12-20T02:57:30;0.80;;;0.80;;
2728;SDS011;1372;47.956;7.830;2023-12-20T03:00:00;0.40;;;0.40;;
2728;SDS011;1372;47.956;7.830;2023-12-20T03:02:29;0.60;;;0.50;;
2728;SDS011;1372;47.956;7.830;2023-12-20T03:04:57;0.50;;;0.50;;
2728;SDS011;1372;47.956;7.830;2023-12-20T03:07:28;0.60;;;0.60;;
2728;SDS011;1372;47.956;7.830;2023-12-20T03:09:59;0.60;;;0.60;;
2728;SDS011;1372;47.956;7.830;2023-12-20T03:12:37;0.63;;;0.63;;
2728;SDS011;1372;47.956;7.830;2023-12-20T03:15:06;0.67;;;0.63;;
2728;SDS011;1372;47.956;7.830;2023-12-20T03:17:36;0.50;;;0.50;;
2728;SDS011;1372;47.956;7.830;2023-12-20T03:20:05;1.23;;;0.70;;
2728;SDS011;1372;47.956;7.830;2023-12-20T03:22:37;0.50;;;0.50;;
2728;SDS011;1372;47.956;7.830;2023-12-20T03:25:07;0.40;;;0.40;;
2728;SDS011;1372;47.956;7.830;2023-12-20T03:27:36;0.50;;;0.50;;
2728;SDS011;1372;47.956;7.830;2023-12-20T03:30:06;2.77;;;0.70;;
2728;SDS011;1372;47.956;7.830;2023-12-20T03:32:36;0.50;;;0.50;;
2728;SDS011;1372;47.956;7.830;2023-12-20T03:35:06;0.40;;;0.40;;
2728;SDS011;1372;47.956;7.830;2023-12-20T03:37:35;1.07;;;0.50;;
2728;SDS011;1372;47.956;7.830;2023-12-20T03:40:07;0.50;;;0.50;;
2728;SDS011;1372;47.956;7.830;2023-12-20T03:42:39;0.47;;;0.47;;
2728;SDS011;1372;47.956;7.830;2023-12-20T03:45:09;0.67;;;0.67;;
2728;SDS011;1372;47.956;7.830;2023-12-20T03:47:37;0.50;;;0.50;;
2728;SDS011;1372;47.956;7.830;2023-12-20T03:50:06;0.65;;;0.60;;
2728;SDS011;1372;47.956;7.830;2023-12-20T03:52:36;0.40;;;0.40;;
2728;SDS011;1372;47.956;7.830;2023-12-20T03:55:04;1.10;;;0.70;;
2728;SDS011;1372;47.956;7.830;2023-12-20T03:57:38;0.47;;;0.47;;
2728;SDS011;1372;47.956;7.830;2023-12-20T04:00:11;0.30;;;0.30;;
2728;SDS011;1372;47.956;7.830;2023-12-20T04:02:42;0.30;;;0.30;;
2728;SDS011;1372;47.956;7.830;2023-12-20T04:05:13;0.60;;;0.60;;
2728;SDS011;1372;47.956;7.830;2023-12-20T04:07:42;0.40;;;0.40;;
2728;SDS011;1372;47.956;7.830;2023-12-20T04:10:15;0.30;;;0.30;;
2728;SDS011;1372;47.956;7.830;2023-12-20T04:12:48;0.50;;;0.43;;
2728;SDS011;1372;47.956;7.830;2023-12-20T04:15:16;0.70;;;0.47;;
2728;SDS011;1372;47.956;7.830;2023-12-20T04:17:45;0.40;;;0.40;;
2728;SDS011;1372;47.956;7.830;2023-12-20T04:20:14;0.40;;;0.40;;
2728;SDS011;1372;47.956;7.830;2023-12-20T04:22:43;0.30;;;0.30;;
2728;SDS011;1372;47.956;7.830;2023-12-20T04:25:11;0.30;;;0.30;;
2728;SDS011;1372;47.956;7.830;2023-12-20T04:27:41;1.03;;;0.40;;
2728;SDS011;1372;47.956;7.830;2023-12-20T04:30:13;0.40;;;0.30;;
2728;SDS011;1372;47.956;7.830;2023-12-20T04:32:41;0.30;;;0.30;;
2728;SDS011;1372;47.956;7.830;2023-12-20T04:35:16;0.37;;;0.37;;
2728;SDS011;1372;47.956;7.830;2023-12-20T04:37:47;0.40;;;0.40;;
2728;SDS011;1372;47.956;7.830;2023-12-20T04:40:17;0.60;;;0.60;;
2728;SDS011;1372;47.956;7.830;2023-12-20T04:42:47;0.40;;;0.40;;
2728;SDS011;1372;47.956;7.830;2023-12-20T04:45:18;0.30;;;0.30;;
2728;SDS011;1372;47.956;7.830;2023-12-20T04:47:47;0.30;;;0.30;;
2728;SDS011;1372;47.956;7.830;2023-12-20T04:50:19;0.23;;;0.23;;
2728;SDS011;1372;47.956;7.830;2023-12-20T04:52:50;0.40;;;0.40;;
2728;SDS011;1372;47.956;7.830;2023-12-20T04:55:18;0.40;;;0.30;;
2728;SDS011;1372;47.956;7.830;2023-12-20T04:57:51;1.00;;;0.90;;
2728;SDS011;1372;47.956;7.830;2023-12-20T05:00:21;1.23;;;0.80;;
2728;SDS011;1372;47.956;7.830;2023-12-20T05:02:50;0.73;;;0.73;;
2728;SDS011;1372;47.956;7.830;2023-12-20T05:05:19;0.97;;;0.87;;
2728;SDS011;1372;47.956;7.830;2023-12-20T05:07:48;1.23;;;1.13;;
2728;SDS011;1372;47.956;7.830;2023-12-20T05:10:17;1.57;;;1.47;;
2728;SDS011;1372;47.956;7.830;2023-12-20T05:12:58;1.57;;;1.10;;
2728;SDS011;1372;47.956;7.830;2023-12-20T05:15:27;1.53;;;1.20;;
2728;SDS011;1372;47.956;7.830;2023-12-20T05:17:56;3.53;;;2.33;;
2728;SDS011;1372;47.956;7.830;2023-12-20T05:20:27;3.83;;;3.50;;
2728;SDS011;1372;47.956;7.830;2023-12-20T05:22:56;6.63;;;5.50;;
2728;SDS011;1372;47.956;7.830;2023-12-20T05:25:25;3.97;;;3.37;;
2728;SDS011;1372;47.956;7.830;2023-12-20T05:27:54;6.00;;;4.17;;
2728;SDS011;1372;47.956;7.830;2023-12-20T05:30:25;5.10;;;3.97;;
2728;SDS011;1372;47.956;7.830;2023-12-20T05:32:54;9.43;;;7.03;;
2728;SDS011;1372;47.956;7.830;2023-12-20T05:35:25;16.73;;;9.60;;
2728;SDS011;1372;47.956;7.830;2023-12-20T05:37:54;13.87;;;8.27;;
2728;SDS011;1372;47.956;7.830;2023-12-20T05:40:26;40.40;;;21.33;;
2728;SDS011;1372;47.956;7.830;2023-12-20T05:42:55;13.63;;;10.10;;
2728;SDS011;1372;47.956;7.830;2023-12-20T05:45:27;2.10;;;1.90;;
2728;SDS011;1372;47.956;7.830;2023-12-20T05:47:56;13.70;;;7.70;;
2728;SDS011;1372;47.956;7.830;2023-12-20T05:50:28;18.20;;;12.87;;
2728;SDS011;1372;47.956;7.830;2023-12-20T05:52:57;30.63;;;17.80;;
2728;SDS011;1372;47.956;7.830;2023-12-20T05:55:26;17.97;;;11.47;;
2728;SDS011;1372;47.956;7.830;2023-12-20T05:57:54;3.80;;;2.80;;
2728;SDS011;1372;47.956;7.830;2023-12-20T06:00:28;3.50;;;3.10;;
2728;SDS011;1372;47.956;7.830;2023-12-20T06:02:59;17.27;;;10.20;;
2728;SDS011;1372;47.956;7.830;2023-12-20T06:05:28;30.10;;;19.37;;
2728;SDS011;1372;47.956;7.830;2023-12-20T06:07:56;37.57;;;23.27;;
2728;SDS011;1372;47.956;7.830;2023-12-20T06:10:28;49.93;;;30.23;;
2728;SDS011;1372;47.956;7.830;2023-12-20T06:12:59;32.50;;;21.77;;
2728;SDS011;1372;47.956;7.830;2023-12-20T06:15:29;8.47;;;6.17;;
2728;SDS011;1372;47.956;7.830;2023-12-20T06:17:58;4.87;;;3.90;;
2728;SDS011;1372;47.956;7.830;2023-12-20T06:20:28;6.03;;;4.20;;
2728;SDS011;1372;47.956;7.830;2023-12-20T06:22:57;7.23;;;6.53;;
2728;SDS011;1372;47.956;7.830;2023-12-20T06:25:28;8.90;;;7.47;;
2728;SDS011;1372;47.956;7.830;2023-12-20T06:27:56;4.70;;;3.93;;
2728;SDS011;1372;47.956;7.830;2023-12-20T06:30:27;3.70;;;3.40;;
2728;SDS011;1372;47.956;7.830;2023-12-20T06:32:59;1.73;;;1.63;;
2728;SDS011;1372;47.956;7.830;2023-12-20T06:35:30;0.90;;;0.90;;
2728;SDS011;1372;47.956;7.830;2023-12-20T06:38:03;0.90;;;0.90;;
2728;SDS011;1372;47.956;7.830;2023-12-20T06:40:31;1.50;;;0.97;;
2728;SDS011;1372;47.956;7.830;2023-12-20T06:43:00;0.90;;;0.90;;
2728;SDS011;1372;47.956;7.830;2023-12-20T06:45:33;3.90;;;2.60;;
2728;SDS011;1372;47.956;7.830;2023-12-20T06:48:02;1.60;;;1.27;;
2728;SDS011;1372;47.956;7.830;2023-12-20T06:50:32;0.70;;;0.70;;
2728;SDS011;1372;47.956;7.830;2023-12-20T06:53:01;1.37;;;1.27;;
2728;SDS011;1372;47.956;7.830;2023-12-20T06:55:33;3.00;;;2.00;;
2728;SDS011;1372;47.956;7.830;2023-12-20T06:58:04;3.20;;;1.80;;
2728;SDS011;1372;47.956;7.830;2023-12-20T07:00:36;5.43;;;2.90;;
2728;SDS011;1372;47.956;7.830;2023-12-20T07:03:05;1.97;;;1.23;;
2728;SDS011;1372;47.956;7.830;2023-12-20T07:05:36;1.50;;;1.40;;
2728;SDS011;1372;47.956;7.830;2023-12-20T07:08:06;1.57;;;1.47;;
2728;SDS011;1372;47.956;7.830;2023-12-20T07:10:35;3.00;;;2.07;;
2728;SDS011;1372;47.956;7.830;2023-12-20T07:13:06;1.07;;;1.07;;
2728;SDS011;1372;47.956;7.830;2023-12-20T07:15:39;0.70;;;0.70;;
2728;SDS011;1372;47.956;7.830;2023-12-20T07:18:10;1.80;;;0.80;;
2728;SDS011;1372;47.956;7.830;2023-12-20T07:20:39;1.10;;;1.10;;
2728;SDS011;1372;47.956;7.830;2023-12-20T07:23:07;1.43;;;0.80;;
2728;SDS011;1372;47.956;7.830;2023-12-20T07:25:36;1.73;;;1.60;;
2728;SDS011;1372;47.956;7.830;2023-12-20T07:28:05;0.80;;;0.60;;
2728;SDS011;1372;47.956;7.830;2023-12-20T07:30:34;0.80;;;0.80;;
2728;SDS011;1372;47.956;7.830;2023-12-20T07:33:04;0.53;;;0.50;;
2728;SDS011;1372;47.956;7.830;2023-12-20T07:35:35;0.60;;;0.60;;
2728;SDS011;1372;47.956;7.830;2023-12-20T07:38:07;1.33;;;1.00;;
2728;SDS011;1372;47.956;7.830;2023-12-20T07:40:35;1.13;;;0.80;;
2728;SDS011;1372;47.956;7.830;2023-12-20T07:43:05;0.53;;;0.53;;
2728;SDS011;1372;47.956;7.830;2023-12-20T07:45:37;1.90;;;1.63;;
2728;SDS011;1372;47.956;7.830;2023-12-20T07:48:08;0.90;;;0.90;;
2728;SDS011;1372;47.956;7.830;2023-12-20T07:50:37;1.63;;;1.53;;
2728;SDS011;1372;47.956;7.830;2023-12-20T07:53:05;1.50;;;1.40;;
2728;SDS011;1372;47.956;7.830;2023-12-20T07:55:34;1.63;;;1.53;;
2728;SDS011;1372;47.956;7.830;2023-12-20T07:58:05;1.60;;;1.50;;
2728;SDS011;1372;47.956;7.830;2023-12-20T08:00:33;3.40;;;3.10;;
2728;SDS011;1372;47.956;7.830;2023-12-20T08:03:02;2.10;;;2.00;;
2728;SDS011;1372;47.956;7.830;2023-12-20T08:05:35;6.20;;;2.23;;
2728;SDS011;1372;47.956;7.830;2023-12-20T08:08:09;1.83;;;1.40;;
2728;SDS011;1372;47.956;7.830;2023-12-20T08:10:40;1.80;;;1.70;;
2728;SDS011;1372;47.956;7.830;2023-12-20T08:13:14;3.87;;;3.13;;
2728;SDS011;1372;47.956;7.830;2023-12-20T08:15:43;3.43;;;3.13;;
2728;SDS011;1372;47.956;7.830;2023-12-20T08:18:11;3.00;;;1.80;;
2728;SDS011;1372;47.956;7.830;2023-12-20T08:20:48;3.93;;;3.20;;
2728;SDS011;1372;47.956;7.830;2023-12-20T08:23:19;3.00;;;2.53;;
2728;SDS011;1372;47.956;7.830;2023-12-20T08:25:54;1.60;;;1.40;;
2728;SDS011;1372;47.956;7.830;2023-12-20T08:28:23;20.87;;;16.80;;
2728;SDS011;1372;47.956;7.830;2023-12-20T08:30:51;3.30;;;3.10;;
2728;SDS011;1372;47.956;7.830;2023-12-20T08:33:21;2.77;;;2.57;;
2728;SDS011;1372;47.956;7.830;2023-12-20T08:35:51;3.00;;;2.70;;
2728;SDS011;1372;47.956;7.830;2023-12-20T08:38:19;3.37;;;2.97;;
2728;SDS011;1372;47.956;7.830;2023-12-20T08:40:48;4.67;;;4.20;;
2728;SDS011;1372;47.956;7.830;2023-12-20T08:43:28;4.50;;;4.10;;
2728;SDS011;1372;47.956;7.830;2023-12-20T08:45:57;4.60;;;4.30;;
2728;SDS011;1372;47.956;7.830;2023-12-20T08:48:28;2.60;;;2.40;;
2728;SDS011;1372;47.956;7.830;2023-12-20T08:51:01;1.33;;;1.23;;
2728;SDS011;1372;47.956;7.830;2023-12-20T08:53:35;1.57;;;1.00;;
2728;SDS011;1372;47.956;7.830;2023-12-20T08:56:07;0.80;;;0.80;;
2728;SDS011;1372;47.956;7.830;2023-12-20T08:58:35;0.80;;;0.70;;
2728;SDS011;1372;47.956;7.830;2023-12-20T09:01:04;0.80;;;0.80;;
2728;SDS011;1372;47.956;7.830;2023-12-20T09:03:34;0.80;;;0.80;;
2728;SDS011;1372;47.956;7.830;2023-12-20T09:06:06;1.43;;;1.10;;
2728;SDS011;1372;47.956;7.830;2023-12-20T09:08:37;2.47;;;0.90;;
2728;SDS011;1372;47.956;7.830;2023-12-20T09:11:09;0.90;;;0.90;;
2728;SDS011;1372;47.956;7.830;2023-12-20T09:13:41;1.33;;;1.23;;
2728;SDS011;1372;47.956;7.830;2023-12-20T09:16:10;1.10;;;1.07;;
2728;SDS011;1372;47.956;7.830;2023-12-20T09:18:41;2.17;;;1.63;;
2728;SDS011;1372;47.956;7.830;2023-12-20T09:21:14;2.83;;;2.40;;
2728;SDS011;1372;47.956;7.830;2023-12-20T09:23:43;2.60;;;2.00;;
2728;SDS011;1372;47.956;7.830;2023-12-20T09:26:18;1.60;;;1.50;;
2728;SDS011;1372;47.956;7.830;2023-12-20T09:28:47;2.63;;;2.40;;
2728;SDS011;1372;47.956;7.830;2023-12-20T09:31:16;1.50;;;1.40;;
2728;SDS011;1372;47.956;7.830;2023-12-20T09:33:47;1.70;;;1.60;;
2728;SDS011;1372;47.956;7.830;2023-12-20T09:36:20;1.90;;;1.70;;
2728;SDS011;1372;47.956;7.830;2023-12-20T09:38:52;1.70;;;1.60;;
2728;SDS011;1372;47.956;7.830;2023-12-20T09:41:23;1.60;;;1.50;;
2728;SDS011;1372;47.956;7.830;2023-12-20T09:43:54;1.73;;;1.63;;
2728;SDS011;1372;47.956;7.830;2023-12-20T09:46:24;1.80;;;1.40;;
2728;SDS011;1372;47.956;7.830;2023-12-20T09:48:59;2.13;;;1.67;;
2728;SDS011;1372;47.956;7.830;2023-12-20T09:51:29;2.70;;;2.50;;
2728;SDS011;1372;47.956;7.830;2023-12-20T09:53:59;2.83;;;1.97;;
2728;SDS011;1372;47.956;7.830;2023-12-20T09:56:31;2.90;;;2.00;;
2728;SDS011;1372;47.956;7.830;2023-12-20T09:59:01;2.00;;;1.80;;
2728;SDS011;1372;47.956;7.830;2023-12-20T10:01:30;2.57;;;2.37;;
2728;SDS011;1372;47.956;7.830;2023-12-20T10:04:00;2.00;;;1.90;;
2728;SDS011;1372;47.956;7.830;2023-12-20T10:06:35;2.23;;;2.03;;
2728;SDS011;1372;47.956;7.830;2023-12-20T10:09:07;2.73;;;2.50;;
2728;SDS011;1372;47.956;7.830;2023-12-20T10:11:37;3.47;;;2.70;;
2728;SDS011;1372;47.956;7.830;2023-12-20T10:14:07;2.67;;;2.47;;
2728;SDS011;1372;47.956;7.830;2023-12-20T10:16:36;2.43;;;2.23;;
2728;SDS011;1372;47.956;7.830;2023-12-20T10:19:05;2.03;;;1.83;;
2728;SDS011;1372;47.956;7.830;2023-12-20T10:21:35;4.10;;;3.50;;
2728;SDS011;1372;47.956;7.830;2023-12-20T10:24:18;3.43;;;3.03;;
2728;SDS011;1372;47.956;7.830;2023-12-20T10:27:00;3.63;;;2.77;;
2728;SDS011;1372;47.956;7.830;2023-12-20T10:29:32;4.40;;;2.30;;
2728;SDS011;1372;47.956;7.830;2023-12-20T10:32:21;4.10;;;2.67;;
2728;SDS011;1372;47.956;7.830;2023-12-20T10:34:51;3.87;;;3.00;;
2728;SDS011;1372;47.956;7.830;2023-12-20T10:37:34;1.93;;;1.83;;
2728;SDS011;1372;47.956;7.830;2023-12-20T10:40:06;2.03;;;1.93;;
2728;SDS011;1372;47.956;7.830;2023-12-20T10:42:39;2.30;;;1.63;;
2728;SDS011;1372;47.956;7.830;2023-12-20T10:45:14;7.13;;;3.70;;
2728;SDS011;1372;47.956;7.830;2023-12-20T10:47:44;9.43;;;3.03;;
2728;SDS011;1372;47.956;7.830;2023-12-20T10:50:23;3.20;;;2.60;;
2728;SDS011;1372;47.956;7.830;2023-12-20T10:52:54;6.10;;;2.10;;
2728;SDS011;1372;47.956;7.830;2023-12-20T10:55:23;2.63;;;2.00;;
2728;SDS011;1372;47.956;7.830;2023-12-20T10:57:54;2.20;;;1.97;;
2728;SDS011;1372;47.956;7.830;2023-12-20T11:00:29;3.37;;;1.70;;
2728;SDS011;1372;47.956;7.830;2023-12-20T11:03:00;4.03;;;2.87;;
2728;SDS011;1372;47.956;7.830;2023-12-20T11:05:33;4.07;;;1.80;;
2728;SDS011;1372;47.956;7.830;2023-12-20T11:08:16;2.70;;;2.50;;
2728;SDS011;1372;47.956;7.830;2023-12-20T11:10:51;3.00;;;2.53;;
2728;SDS011;1372;47.956;7.830;2023-12-20T11:13:32;4.70;;;3.57;;
2728;SDS011;1372;47.956;7.830;2023-12-20T11:16:21;9.40;;;7.10;;
2728;SDS011;1372;47.956;7.830;2023-12-20T11:18:55;5.60;;;3.30;;
2728;SDS011;1372;47.956;7.830;2023-12-20T11:21:32;6.53;;;4.93;;
2728;SDS011;1372;47.956;7.830;2023-12-20T11:24:03;3.47;;;2.43;;
2728;SDS011;1372;47.956;7.830;2023-12-20T11:26:35;9.63;;;6.60;;
2728;SDS011;1372;47.956;7.830;2023-12-20T11:29:29;11.53;;;7.40;;
2728;SDS011;1372;47.956;7.830;2023-12-20T11:32:02;5.57;;;2.97;;
2728;SDS011;1372;47.956;7.830;2023-12-20T11:34:32;3.17;;;2.07;;
2728;SDS011;1372;47.956;7.830;2023-12-20T11:37:08;2.47;;;1.80;;
2728;SDS011;1372;47.956;7.830;2023-12-20T11:39:43;3.40;;;2.10;;
2728;SDS011;1372;47.956;7.830;2023-12-20T11:42:12;2.00;;;1.90;;
2728;SDS011;1372;47.956;7.830;2023-12-20T11:44:43;2.17;;;1.73;;
2728;SDS011;1372;47.956;7.830;2023-12-20T11:47:14;3.20;;;2.00;;
2728;SDS011;1372;47.956;7.830;2023-12-20T11:49:46;2.90;;;1.93;;
2728;SDS011;1372;47.956;7.830;2023-12-20T11:52:16;1.80;;;1.67;;
2728;SDS011;1372;47.956;7.830;2023-12-20T11:54:46;2.27;;;1.40;;
2728;SDS011;1372;47.956;7.830;2023-12-20T11:57:15;2.80;;;1.90;;
2728;SDS011;1372;47.956;7.830;2023-12-20T11:59:44;2.40;;;1.70;;
2728;SDS011;1372;47.956;7.830;2023-12-20T12:02:13;3.50;;;1.80;;
2728;SDS011;1372;47.956;7.830;2023-12-20T12:04:42;4.13;;;1.90;;
2728;SDS011;1372;47.956;7.830;2023-12-20T12:07:10;1.90;;;1.40;;
2728;SDS011;1372;47.956;7.830;2023-12-20T12:09:39;2.80;;;1.67;;
2728;SDS011;1372;47.956;7.830;2023-12-20T12:12:11;2.80;;;1.10;;
2728;SDS011;1372;47.956;7.830;2023-12-20T12:14:41;2.03;;;1.70;;
2728;SDS011;1372;47.956;7.830;2023-12-20T12:17:10;3.13;;;1.63;;
2728;SDS011;1372;47.956;7.830;2023-12-20T12:19:39;2.93;;;1.40;;
2728;SDS011;1372;47.956;7.830;2023-12-20T12:22:09;1.73;;;1.10;;
2728;SDS011;1372;47.956;7.830;2023-12-20T12:24:42;4.50;;;1.77;;
2728;SDS011;1372;47.956;7.830;2023-12-20T12:27:13;3.33;;;1.87;;
2728;SDS011;1372;47.956;7.830;2023-12-20T12:32:30;3.73;;;1.40;;
2728;SDS011;1372;47.956;7.830;2023-12-20T12:34:59;2.33;;;1.90;;
2728;SDS011;1372;47.956;7.830;2023-12-20T12:37:31;2.50;;;1.53;;
2728;SDS011;1372;47.956;7.830;2023-12-20T12:40:09;1.67;;;1.53;;
2728;SDS011;1372;47.956;7.830;2023-12-20T12:42:41;1.77;;;1.00;;
2728;SDS011;1372;47.956;7.830;2023-12-20T12:45:16;2.07;;;0.80;;
2728;SDS011;1372;47.956;7.830;2023-12-20T12:47:45;2.10;;;1.30;;
2728;SDS011;1372;47.956;7.830;2023-12-20T12:50:14;1.00;;;1.00;;
2728;SDS011;1372;47.956;7.830;2023-12-20T12:52:49;1.63;;;1.40;;
2728;SDS011;1372;47.956;7.830;2023-12-20T12:55:20;2.00;;;1.67;;
2728;SDS011;1372;47.956;7.830;2023-12-20T12:57:52;2.87;;;1.57;;
2728;SDS011;1372;47.956;7.830;2023-12-20T13:00:25;1.73;;;1.10;;
2728;SDS011;1372;47.956;7.830;2023-12-20T13:02:58;2.60;;;2.13;;
2728;SDS011;1372;47.956;7.830;2023-12-20T13:05:27;14.43;;;9.27;;
2728;SDS011;1372;47.956;7.830;2023-12-20T13:08:01;29.23;;;20.57;;
2728;SDS011;1372;47.956;7.830;2023-12-20T13:10:30;5.40;;;3.47;;
2728;SDS011;1372;47.956;7.830;2023-12-20T13:13:01;5.30;;;4.40;;
2728;SDS011;1372;47.956;7.830;2023-12-20T13:15:31;4.33;;;1.80;;
2728;SDS011;1372;47.956;7.830;2023-12-20T13:18:00;2.20;;;1.63;;
2728;SDS011;1372;47.956;7.830;2023-12-20T13:20:29;3.97;;;1.47;;
2728;SDS011;1372;47.956;7.830;2023-12-20T13:23:00;2.57;;;2.37;;
2728;SDS011;1372;47.956;7.830;2023-12-20T13:25:33;3.83;;;1.60;;
2728;SDS011;1372;47.956;7.830;2023-12-20T13:28:11;6.53;;;2.50;;
2728;SDS011;1372;47.956;7.830;2023-12-20T13:30:41;2.77;;;2.57;;
2728;SDS011;1372;47.956;7.830;2023-12-20T13:33:10;4.17;;;3.57;;
2728;SDS011;1372;47.956;7.830;2023-12-20T13:35:48;3.20;;;2.93;;
2728;SDS011;1372;47.956;7.830;2023-12-20T13:38:22;10.03;;;5.30;;
2728;SDS011;1372;47.956;7.830;2023-12-20T13:40:54;6.03;;;3.57;;
2728;SDS011;1372;47.956;7.830;2023-12-20T13:43:26;5.03;;;1.97;;
2728;SDS011;1372;47.956;7.830;2023-12-20T13:45:55;3.33;;;1.80;;
2728;SDS011;1372;47.956;7.830;2023-12-20T13:48:24;4.80;;;2.27;;
2728;SDS011;1372;47.956;7.830;2023-12-20T13:50:53;3.63;;;2.13;;
2728;SDS011;1372;47.956;7.830;2023-12-20T13:53:27;12.87;;;5.97;;
2728;SDS011;1372;47.956;7.830;2023-12-20T13:55:55;8.40;;;4.50;;
2728;SDS011;1372;47.956;7.830;2023-12-20T13:58:29;13.27;;;9.07;;
2728;SDS011;1372;47.956;7.830;2023-12-20T14:01:00;103.43;;;17.10;;
2728;SDS011;1372;47.956;7.830;2023-12-20T14:03:29;6.00;;;3.10;;
2728;SDS011;1372;47.956;7.830;2023-12-20T14:05:58;6.50;;;3.20;;
2728;SDS011;1372;47.956;7.830;2023-12-20T14:08:30;7.17;;;3.40;;
2728;SDS011;1372;47.956;7.830;2023-12-20T14:10:59;5.00;;;3.17;;
2728;SDS011;1372;47.956;7.830;2023-12-20T14:13:30;4.43;;;2.80;;
2728;SDS011;1372;47.956;7.830;2023-12-20T14:16:00;2.70;;;2.17;;
2728;SDS011;1372;47.956;7.830;2023-12-20T14:18:30;6.77;;;2.90;;
2728;SDS011;1372;47.956;7.830;2023-12-20T14:20:59;6.50;;;2.80;;
2728;SDS011;1372;47.956;7.830;2023-12-20T14:23:28;2.87;;;2.27;;
2728;SDS011;1372;47.956;7.830;2023-12-20T14:25:58;2.60;;;2.00;;
2728;SDS011;1372;47.956;7.830;2023-12-20T14:28:30;2.63;;;2.43;;
2728;SDS011;1372;47.956;7.830;2023-12-20T14:31:01;2.40;;;1.87;;
2728;SDS011;1372;47.956;7.830;2023-12-20T14:33:33;1.70;;;1.60;;
2728;SDS011;1372;47.956;7.830;2023-12-20T14:36:04;7.43;;;4.60;;
2728;SDS011;1372;47.956;7.830;2023-12-20T14:38:34;7.13;;;3.40;;
2728;SDS011;1372;47.956;7.830;2023-12-20T14:41:05;4.23;;;3.83;;
2728;SDS011;1372;47.956;7.830;2023-12-20T14:43:37;5.73;;;2.27;;
2728;SDS011;1372;47.956;7.830;2023-12-20T14:46:06;3.00;;;2.13;;
2728;SDS011;1372;47.956;7.830;2023-12-20T14:48:38;7.30;;;2.57;;
2728;SDS011;1372;47.956;7.830;2023-12-20T14:51:07;3.83;;;2.17;;
2728;SDS011;1372;47.956;7.830;2023-12-20T14:53:37;5.23;;;2.83;;
2728;SDS011;1372;47.956;7.830;2023-12-20T14:56:06;2.60;;;1.93;;
2728;SDS011;1372;47.956;7.830;2023-12-20T14:58:36;4.33;;;2.00;;
2728;SDS011;1372;47.956;7.830;2023-12-20T15:01:05;2.60;;;2.10;;
2728;SDS011;1372;47.956;7.830;2023-12-20T15:03:35;3.00;;;1.97;;
2728;SDS011;1372;47.956;7.830;2023-12-20T15:06:06;3.97;;;2.20;;
2728;SDS011;1372;47.956;7.830;2023-12-20T15:08:38;6.07;;;2.33;;
2728;SDS011;1372;47.956;7.830;2023-12-20T15:11:11;3.33;;;1.30;;
2728;SDS011;1372;47.956;7.830;2023-12-20T15:13:42;3.03;;;1.50;;
2728;SDS011;1372;47.956;7.830;2023-12-20T15:16:11;7.37;;;1.30;;
2728;SDS011;1372;47.956;7.830;2023-12-20T15:18:43;1.40;;;1.20;;
2728;SDS011;1372;47.956;7.830;2023-12-20T15:21:12;3.90;;;1.40;;
2728;SDS011;1372;47.956;7.830;2023-12-20T15:23:45;2.40;;;1.60;;
2728;SDS011;1372;47.956;7.830;2023-12-20T15:26:19;2.83;;;1.20;;
2728;SDS011;1372;47.956;7.830;2023-12-20T15:28:49;1.90;;;1.60;;
2728;SDS011;1372;47.956;7.830;2023-12-20T15:31:18;4.30;;;1.70;;
2728;SDS011;1372;47.956;7.830;2023-12-20T15:33:53;5.77;;;1.70;;
2728;SDS011;1372;47.956;7.830;2023-12-20T15:36:22;7.47;;;1.30;;
2728;SDS011;1372;47.956;7.830;2023-12-20T15:38:51;4.40;;;1.73;;
2728;SDS011;1372;47.956;7.830;2023-12-20T15:41:21;3.20;;;1.20;;